sensor_id;sensor_type;location;lat;lon;timestamp;P1;durP1;ratioP1;P2;durP2;ratioP2
19291;SDS011;9779;51.756;7.450;2023-03-03T00:02:19;15.70;;;11.83;;
19291;SDS011;9779;51.756;7.450;2023-03-03T00:04:44;15.00;;;11.73;;
19291;SDS011;9779;51.756;7.450;2023-03-03T00:07:10;16.73;;;11.93;;
19291;SDS011;9779;51.756;7.450;2023-03-03T00:09:36;13.50;;;11.50;;
19291;SDS011;9779;51.756;7.450;2023-03-03T00:12:02;14.87;;;11.20;;
19291;SDS011;9779;51.756;7.450;2023-03-03T00:14:47;15.87;;;12.13;;
19291;SDS011;9779;51.756;7.450;2023-03-03T00:17:15;17.53;;;12.80;;
19291;SDS011;9779;51.756;7.450;2023-03-03T00:19:48;13.03;;;11.07;;
19291;SDS011;9779;51.756;7.450;2023-03-03T00:22:20;15.97;;;12.90;;
19291;SDS011;9779;51.756;7.450;2023-03-03T00:24:57;15.53;;;11.83;;
19291;SDS011;9779;51.756;7.450;2023-03-03T00:29:53;14.17;;;11.50;;
19291;SDS011;9779;51.756;7.450;2023-03-03T00:34:49;17.13;;;13.07;;
19291;SDS011;9779;51.756;7.450;2023-03-03T00:37:32;16.23;;;12.80;;
19291;SDS011;9779;51.756;7.450;2023-03-03T00:42:39;13.87;;;11.80;;
19291;SDS011;9779;51.756;7.450;2023-03-03T00:45:21;17.33;;;13.00;;
19291;SDS011;9779;51.756;7.450;2023-03-03T00:47:51;15.30;;;12.50;;
19291;SDS011;9779;51.756;7.450;2023-03-03T00:50:27;18.50;;;12.70;;
19291;SDS011;9779;51.756;7.450;2023-03-03T00:53:04;18.03;;;13.33;;
19291;SDS011;9779;51.756;7.450;2023-03-03T00:55:34;19.17;;;13.10;;
19291;SDS011;9779;51.756;7.450;2023-03-03T00:58:00;18.30;;;13.63;;
19291;SDS011;9779;51.756;7.450;2023-03-03T01:00:26;19.60;;;13.67;;
19291;SDS011;9779;51.756;7.450;2023-03-03T01:02:51;16.63;;;12.00;;
19291;SDS011;9779;51.756;7.450;2023-03-03T01:05:17;27.27;;;13.83;;
19291;SDS011;9779;51.756;7.450;2023-03-03T01:07:43;14.33;;;11.93;;
19291;SDS011;9779;51.756;7.450;2023-03-03T01:10:09;20.53;;;13.30;;
19291;SDS011;9779;51.756;7.450;2023-03-03T01:12:36;15.63;;;12.50;;
19291;SDS011;9779;51.756;7.450;2023-03-03T01:15:03;13.27;;;11.50;;
19291;SDS011;9779;51.756;7.450;2023-03-03T01:17:33;15.00;;;12.33;;
19291;SDS011;9779;51.756;7.450;2023-03-03T01:19:59;20.50;;;12.80;;
19291;SDS011;9779;51.756;7.450;2023-03-03T01:22:25;18.30;;;12.97;;
19291;SDS011;9779;51.756;7.450;2023-03-03T01:24:51;19.70;;;13.57;;
19291;SDS011;9779;51.756;7.450;2023-03-03T01:27:17;16.53;;;13.17;;
19291;SDS011;9779;51.756;7.450;2023-03-03T01:29:42;20.43;;;14.07;;
19291;SDS011;9779;51.756;7.450;2023-03-03T01:32:08;18.63;;;12.67;;
19291;SDS011;9779;51.756;7.450;2023-03-03T01:34:33;13.87;;;12.37;;
19291;SDS011;9779;51.756;7.450;2023-03-03T01:36:59;17.67;;;13.33;;
19291;SDS011;9779;51.756;7.450;2023-03-03T01:39:25;16.53;;;13.00;;
19291;SDS011;9779;51.756;7.450;2023-03-03T01:41:50;17.63;;;12.17;;
19291;SDS011;9779;51.756;7.450;2023-03-03T01:44:16;14.07;;;11.93;;
19291;SDS011;9779;51.756;7.450;2023-03-03T01:46:54;17.60;;;12.97;;
19291;SDS011;9779;51.756;7.450;2023-03-03T01:49:30;15.10;;;12.97;;
19291;SDS011;9779;51.756;7.450;2023-03-03T01:52:08;14.77;;;13.17;;
19291;SDS011;9779;51.756;7.450;2023-03-03T01:54:52;14.57;;;12.23;;
19291;SDS011;9779;51.756;7.450;2023-03-03T01:57:23;16.77;;;12.37;;
19291;SDS011;9779;51.756;7.450;2023-03-03T01:59:55;14.40;;;12.27;;
19291;SDS011;9779;51.756;7.450;2023-03-03T02:02:21;15.10;;;12.10;;
19291;SDS011;9779;51.756;7.450;2023-03-03T02:04:49;12.83;;;11.50;;
19291;SDS011;9779;51.756;7.450;2023-03-03T02:07:14;13.90;;;11.57;;
19291;SDS011;9779;51.756;7.450;2023-03-03T02:09:44;14.47;;;12.13;;
19291;SDS011;9779;51.756;7.450;2023-03-03T02:12:21;16.43;;;12.90;;
19291;SDS011;9779;51.756;7.450;2023-03-03T02:14:53;16.50;;;12.77;;
19291;SDS011;9779;51.756;7.450;2023-03-03T02:17:19;12.23;;;11.03;;
19291;SDS011;9779;51.756;7.450;2023-03-03T02:19:51;15.90;;;11.50;;
19291;SDS011;9779;51.756;7.450;2023-03-03T02:22:34;18.60;;;12.97;;
19291;SDS011;9779;51.756;7.450;2023-03-03T02:25:08;16.03;;;11.90;;
19291;SDS011;9779;51.756;7.450;2023-03-03T02:27:38;14.07;;;11.30;;
19291;SDS011;9779;51.756;7.450;2023-03-03T02:30:12;12.80;;;11.47;;
19291;SDS011;9779;51.756;7.450;2023-03-03T02:32:42;15.17;;;12.17;;
19291;SDS011;9779;51.756;7.450;2023-03-03T02:35:27;16.73;;;12.33;;
19291;SDS011;9779;51.756;7.450;2023-03-03T02:37:59;17.03;;;12.77;;
19291;SDS011;9779;51.756;7.450;2023-03-03T02:41:05;19.53;;;12.50;;
19291;SDS011;9779;51.756;7.450;2023-03-03T02:43:50;17.23;;;12.17;;
19291;SDS011;9779;51.756;7.450;2023-03-03T02:46:22;17.60;;;12.10;;
19291;SDS011;9779;51.756;7.450;2023-03-03T02:48:48;21.10;;;13.97;;
19291;SDS011;9779;51.756;7.450;2023-03-03T02:51:14;20.70;;;13.67;;
19291;SDS011;9779;51.756;7.450;2023-03-03T02:53:39;21.67;;;13.97;;
19291;SDS011;9779;51.756;7.450;2023-03-03T02:56:05;19.30;;;14.13;;
19291;SDS011;9779;51.756;7.450;2023-03-03T02:58:33;19.67;;;13.93;;
19291;SDS011;9779;51.756;7.450;2023-03-03T03:00:59;18.27;;;13.43;;
19291;SDS011;9779;51.756;7.450;2023-03-03T03:03:25;18.23;;;13.63;;
19291;SDS011;9779;51.756;7.450;2023-03-03T03:05:51;18.33;;;13.73;;
19291;SDS011;9779;51.756;7.450;2023-03-03T03:08:16;18.10;;;12.87;;
19291;SDS011;9779;51.756;7.450;2023-03-03T03:10:42;16.67;;;12.87;;
19291;SDS011;9779;51.756;7.450;2023-03-03T03:13:07;17.17;;;12.77;;
19291;SDS011;9779;51.756;7.450;2023-03-03T03:15:34;16.27;;;12.90;;
19291;SDS011;9779;51.756;7.450;2023-03-03T03:18:00;16.97;;;13.70;;
19291;SDS011;9779;51.756;7.450;2023-03-03T03:20:25;27.00;;;16.10;;
19291;SDS011;9779;51.756;7.450;2023-03-03T03:22:51;28.87;;;15.50;;
19291;SDS011;9779;51.756;7.450;2023-03-03T03:25:16;26.37;;;15.37;;
19291;SDS011;9779;51.756;7.450;2023-03-03T03:27:42;28.90;;;16.90;;
19291;SDS011;9779;51.756;7.450;2023-03-03T03:30:07;28.50;;;15.53;;
19291;SDS011;9779;51.756;7.450;2023-03-03T03:32:33;29.30;;;16.73;;
19291;SDS011;9779;51.756;7.450;2023-03-03T03:34:59;29.37;;;15.60;;
19291;SDS011;9779;51.756;7.450;2023-03-03T03:37:24;36.57;;;17.07;;
19291;SDS011;9779;51.756;7.450;2023-03-03T03:39:50;31.53;;;17.57;;
19291;SDS011;9779;51.756;7.450;2023-03-03T03:42:16;31.17;;;16.00;;
19291;SDS011;9779;51.756;7.450;2023-03-03T03:44:41;30.70;;;17.27;;
19291;SDS011;9779;51.756;7.450;2023-03-03T03:47:07;33.43;;;17.60;;
19291;SDS011;9779;51.756;7.450;2023-03-03T03:49:32;32.27;;;18.07;;
19291;SDS011;9779;51.756;7.450;2023-03-03T03:51:58;33.57;;;17.97;;
19291;SDS011;9779;51.756;7.450;2023-03-03T03:54:24;34.93;;;17.83;;
19291;SDS011;9779;51.756;7.450;2023-03-03T03:56:52;33.57;;;18.30;;
19291;SDS011;9779;51.756;7.450;2023-03-03T03:59:19;39.57;;;18.53;;
19291;SDS011;9779;51.756;7.450;2023-03-03T04:01:45;38.30;;;20.40;;
19291;SDS011;9779;51.756;7.450;2023-03-03T04:04:12;41.60;;;20.57;;
19291;SDS011;9779;51.756;7.450;2023-03-03T04:06:38;37.67;;;20.60;;
19291;SDS011;9779;51.756;7.450;2023-03-03T04:09:03;45.70;;;22.00;;
19291;SDS011;9779;51.756;7.450;2023-03-03T04:11:29;48.20;;;20.97;;
19291;SDS011;9779;51.756;7.450;2023-03-03T04:13:55;44.17;;;20.20;;
19291;SDS011;9779;51.756;7.450;2023-03-03T04:16:21;41.37;;;18.80;;
19291;SDS011;9779;51.756;7.450;2023-03-03T04:18:46;40.57;;;19.10;;
19291;SDS011;9779;51.756;7.450;2023-03-03T04:21:12;32.27;;;18.70;;
19291;SDS011;9779;51.756;7.450;2023-03-03T04:23:39;41.53;;;19.93;;
19291;SDS011;9779;51.756;7.450;2023-03-03T04:26:05;34.97;;;19.17;;
19291;SDS011;9779;51.756;7.450;2023-03-03T04:28:31;40.47;;;18.93;;
19291;SDS011;9779;51.756;7.450;2023-03-03T04:30:56;42.30;;;20.93;;
19291;SDS011;9779;51.756;7.450;2023-03-03T04:33:22;37.03;;;18.33;;
19291;SDS011;9779;51.756;7.450;2023-03-03T04:35:47;35.70;;;18.53;;
19291;SDS011;9779;51.756;7.450;2023-03-03T04:38:13;39.07;;;19.63;;
19291;SDS011;9779;51.756;7.450;2023-03-03T04:40:39;35.90;;;19.17;;
19291;SDS011;9779;51.756;7.450;2023-03-03T04:43:05;38.40;;;19.50;;
19291;SDS011;9779;51.756;7.450;2023-03-03T04:45:31;40.17;;;19.23;;
19291;SDS011;9779;51.756;7.450;2023-03-03T04:47:57;33.93;;;18.13;;
19291;SDS011;9779;51.756;7.450;2023-03-03T04:50:22;36.07;;;19.13;;
19291;SDS011;9779;51.756;7.450;2023-03-03T04:52:48;36.87;;;19.23;;
19291;SDS011;9779;51.756;7.450;2023-03-03T04:55:13;38.40;;;18.67;;
19291;SDS011;9779;51.756;7.450;2023-03-03T04:57:40;38.17;;;19.77;;
19291;SDS011;9779;51.756;7.450;2023-03-03T05:00:06;38.60;;;20.30;;
19291;SDS011;9779;51.756;7.450;2023-03-03T05:02:33;36.70;;;18.23;;
19291;SDS011;9779;51.756;7.450;2023-03-03T05:04:58;37.27;;;19.50;;
19291;SDS011;9779;51.756;7.450;2023-03-03T05:07:24;47.23;;;21.87;;
19291;SDS011;9779;51.756;7.450;2023-03-03T05:09:49;52.70;;;24.83;;
19291;SDS011;9779;51.756;7.450;2023-03-03T05:12:16;44.87;;;22.53;;
19291;SDS011;9779;51.756;7.450;2023-03-03T05:14:42;40.57;;;21.77;;
19291;SDS011;9779;51.756;7.450;2023-03-03T05:17:07;45.70;;;22.57;;
19291;SDS011;9779;51.756;7.450;2023-03-03T05:19:33;50.67;;;24.20;;
19291;SDS011;9779;51.756;7.450;2023-03-03T05:21:59;52.20;;;24.40;;
19291;SDS011;9779;51.756;7.450;2023-03-03T05:24:25;58.77;;;29.57;;
19291;SDS011;9779;51.756;7.450;2023-03-03T05:26:51;56.63;;;25.47;;
19291;SDS011;9779;51.756;7.450;2023-03-03T05:29:17;51.83;;;26.47;;
19291;SDS011;9779;51.756;7.450;2023-03-03T05:31:42;46.37;;;23.10;;
19291;SDS011;9779;51.756;7.450;2023-03-03T05:34:08;44.53;;;21.37;;
19291;SDS011;9779;51.756;7.450;2023-03-03T05:36:33;52.10;;;23.00;;
19291;SDS011;9779;51.756;7.450;2023-03-03T05:38:59;48.43;;;22.30;;
19291;SDS011;9779;51.756;7.450;2023-03-03T05:41:25;44.90;;;20.40;;
19291;SDS011;9779;51.756;7.450;2023-03-03T05:43:50;41.50;;;19.43;;
19291;SDS011;9779;51.756;7.450;2023-03-03T05:46:16;45.53;;;19.40;;
19291;SDS011;9779;51.756;7.450;2023-03-03T05:48:41;43.13;;;19.63;;
19291;SDS011;9779;51.756;7.450;2023-03-03T05:51:07;41.60;;;21.27;;
19291;SDS011;9779;51.756;7.450;2023-03-03T05:53:32;54.07;;;27.07;;
19291;SDS011;9779;51.756;7.450;2023-03-03T05:55:58;63.73;;;30.47;;
19291;SDS011;9779;51.756;7.450;2023-03-03T05:58:23;48.10;;;22.50;;
19291;SDS011;9779;51.756;7.450;2023-03-03T06:00:49;46.40;;;22.53;;
19291;SDS011;9779;51.756;7.450;2023-03-03T06:03:14;50.93;;;26.23;;
19291;SDS011;9779;51.756;7.450;2023-03-03T06:05:40;47.47;;;23.00;;
19291;SDS011;9779;51.756;7.450;2023-03-03T06:08:06;51.77;;;22.07;;
19291;SDS011;9779;51.756;7.450;2023-03-03T06:10:32;44.87;;;20.93;;
19291;SDS011;9779;51.756;7.450;2023-03-03T06:12:57;37.00;;;18.27;;
19291;SDS011;9779;51.756;7.450;2023-03-03T06:15:23;32.37;;;16.97;;
19291;SDS011;9779;51.756;7.450;2023-03-03T06:17:48;31.13;;;15.73;;
19291;SDS011;9779;51.756;7.450;2023-03-03T06:20:14;39.30;;;18.07;;
19291;SDS011;9779;51.756;7.450;2023-03-03T06:22:40;40.20;;;19.93;;
19291;SDS011;9779;51.756;7.450;2023-03-03T06:25:06;41.57;;;19.37;;
19291;SDS011;9779;51.756;7.450;2023-03-03T06:27:32;38.77;;;19.00;;
19291;SDS011;9779;51.756;7.450;2023-03-03T06:29:57;54.00;;;23.63;;
19291;SDS011;9779;51.756;7.450;2023-03-03T06:32:23;43.07;;;22.13;;
19291;SDS011;9779;51.756;7.450;2023-03-03T06:34:48;37.00;;;19.97;;
19291;SDS011;9779;51.756;7.450;2023-03-03T06:37:14;47.40;;;21.77;;
19291;SDS011;9779;51.756;7.450;2023-03-03T06:39:40;43.37;;;20.47;;
19291;SDS011;9779;51.756;7.450;2023-03-03T06:42:05;46.37;;;21.10;;
19291;SDS011;9779;51.756;7.450;2023-03-03T06:44:33;40.77;;;19.60;;
19291;SDS011;9779;51.756;7.450;2023-03-03T06:46:59;39.87;;;19.63;;
19291;SDS011;9779;51.756;7.450;2023-03-03T06:49:25;36.40;;;19.27;;
19291;SDS011;9779;51.756;7.450;2023-03-03T06:51:50;31.63;;;16.37;;
19291;SDS011;9779;51.756;7.450;2023-03-03T06:54:17;33.13;;;17.00;;
19291;SDS011;9779;51.756;7.450;2023-03-03T06:56:44;31.50;;;15.93;;
19291;SDS011;9779;51.756;7.450;2023-03-03T06:59:12;29.90;;;14.97;;
19291;SDS011;9779;51.756;7.450;2023-03-03T07:01:43;30.17;;;15.07;;
19291;SDS011;9779;51.756;7.450;2023-03-03T07:04:29;31.80;;;15.77;;
19291;SDS011;9779;51.756;7.450;2023-03-03T07:06:57;28.67;;;15.00;;
19291;SDS011;9779;51.756;7.450;2023-03-03T07:09:31;26.13;;;15.07;;
19291;SDS011;9779;51.756;7.450;2023-03-03T07:12:01;31.67;;;14.40;;
19291;SDS011;9779;51.756;7.450;2023-03-03T07:14:34;26.50;;;13.90;;
19291;SDS011;9779;51.756;7.450;2023-03-03T07:17:08;27.70;;;14.27;;
19291;SDS011;9779;51.756;7.450;2023-03-03T07:19:45;27.00;;;14.03;;
19291;SDS011;9779;51.756;7.450;2023-03-03T07:24:45;22.73;;;14.07;;
19291;SDS011;9779;51.756;7.450;2023-03-03T07:27:19;20.90;;;12.87;;
19291;SDS011;9779;51.756;7.450;2023-03-03T07:29:46;20.80;;;14.23;;
19291;SDS011;9779;51.756;7.450;2023-03-03T07:32:18;28.97;;;15.23;;
19291;SDS011;9779;51.756;7.450;2023-03-03T07:34:57;23.13;;;13.83;;
19291;SDS011;9779;51.756;7.450;2023-03-03T07:37:28;26.43;;;14.23;;
19291;SDS011;9779;51.756;7.450;2023-03-03T07:40:05;25.43;;;14.17;;
19291;SDS011;9779;51.756;7.450;2023-03-03T07:46:01;24.03;;;12.97;;
19291;SDS011;9779;51.756;7.450;2023-03-03T07:48:48;24.50;;;12.83;;
19291;SDS011;9779;51.756;7.450;2023-03-03T07:53:53;21.97;;;13.40;;
19291;SDS011;9779;51.756;7.450;2023-03-03T07:56:37;26.63;;;13.13;;
19291;SDS011;9779;51.756;7.450;2023-03-03T07:59:08;23.73;;;13.40;;
19291;SDS011;9779;51.756;7.450;2023-03-03T08:01:52;22.00;;;12.97;;
19291;SDS011;9779;51.756;7.450;2023-03-03T08:04:43;21.33;;;12.57;;
19291;SDS011;9779;51.756;7.450;2023-03-03T08:07:11;20.30;;;12.57;;
19291;SDS011;9779;51.756;7.450;2023-03-03T08:12:26;19.13;;;10.93;;
19291;SDS011;9779;51.756;7.450;2023-03-03T08:14:57;18.57;;;11.67;;
19291;SDS011;9779;51.756;7.450;2023-03-03T08:17:36;18.93;;;12.00;;
19291;SDS011;9779;51.756;7.450;2023-03-03T08:23:08;25.10;;;13.20;;
19291;SDS011;9779;51.756;7.450;2023-03-03T08:25:34;22.37;;;12.77;;
19291;SDS011;9779;51.756;7.450;2023-03-03T08:28:00;29.83;;;14.00;;
19291;SDS011;9779;51.756;7.450;2023-03-03T08:30:25;21.73;;;12.73;;
19291;SDS011;9779;51.756;7.450;2023-03-03T08:32:51;23.67;;;13.77;;
19291;SDS011;9779;51.756;7.450;2023-03-03T08:35:16;26.23;;;12.73;;
19291;SDS011;9779;51.756;7.450;2023-03-03T08:37:42;26.47;;;14.00;;
19291;SDS011;9779;51.756;7.450;2023-03-03T08:40:07;21.67;;;13.50;;
19291;SDS011;9779;51.756;7.450;2023-03-03T08:42:34;28.53;;;14.13;;
19291;SDS011;9779;51.756;7.450;2023-03-03T08:44:59;28.47;;;14.50;;
19291;SDS011;9779;51.756;7.450;2023-03-03T08:47:25;27.33;;;13.67;;
19291;SDS011;9779;51.756;7.450;2023-03-03T08:49:50;22.20;;;13.80;;
19291;SDS011;9779;51.756;7.450;2023-03-03T08:52:16;32.90;;;14.00;;
19291;SDS011;9779;51.756;7.450;2023-03-03T08:54:41;23.70;;;13.77;;
19291;SDS011;9779;51.756;7.450;2023-03-03T08:57:07;24.03;;;12.30;;
19291;SDS011;9779;51.756;7.450;2023-03-03T08:59:32;24.27;;;12.47;;
19291;SDS011;9779;51.756;7.450;2023-03-03T09:02:03;24.00;;;12.17;;
19291;SDS011;9779;51.756;7.450;2023-03-03T09:04:29;21.60;;;13.23;;
19291;SDS011;9779;51.756;7.450;2023-03-03T09:06:55;34.00;;;14.60;;
19291;SDS011;9779;51.756;7.450;2023-03-03T09:09:20;18.97;;;12.63;;
19291;SDS011;9779;51.756;7.450;2023-03-03T09:11:46;26.30;;;13.57;;
19291;SDS011;9779;51.756;7.450;2023-03-03T09:14:15;22.80;;;12.97;;
19291;SDS011;9779;51.756;7.450;2023-03-03T09:16:52;26.00;;;13.33;;
19291;SDS011;9779;51.756;7.450;2023-03-03T09:19:22;23.60;;;13.43;;
19291;SDS011;9779;51.756;7.450;2023-03-03T09:21:51;23.20;;;14.27;;
19291;SDS011;9779;51.756;7.450;2023-03-03T09:24:25;26.77;;;15.10;;
19291;SDS011;9779;51.756;7.450;2023-03-03T09:26:52;23.23;;;13.00;;
19291;SDS011;9779;51.756;7.450;2023-03-03T09:29:25;26.40;;;14.53;;
19291;SDS011;9779;51.756;7.450;2023-03-03T09:31:56;28.77;;;14.13;;
19291;SDS011;9779;51.756;7.450;2023-03-03T09:37:36;20.33;;;12.40;;
19291;SDS011;9779;51.756;7.450;2023-03-03T09:40:00;17.20;;;12.10;;
19291;SDS011;9779;51.756;7.450;2023-03-03T09:42:54;25.50;;;14.33;;
19291;SDS011;9779;51.756;7.450;2023-03-03T09:50:55;20.43;;;12.33;;
19291;SDS011;9779;51.756;7.450;2023-03-03T09:53:47;20.77;;;13.33;;
19291;SDS011;9779;51.756;7.450;2023-03-03T09:57:02;19.37;;;11.77;;
19291;SDS011;9779;51.756;7.450;2023-03-03T09:59:23;11.20;;;7.40;;
19291;SDS011;9779;51.756;7.450;2023-03-03T10:02:18;27.27;;;12.70;;
19291;SDS011;9779;51.756;7.450;2023-03-03T10:05:13;20.80;;;12.17;;
19291;SDS011;9779;51.756;7.450;2023-03-03T10:10:31;21.57;;;13.20;;
19291;SDS011;9779;51.756;7.450;2023-03-03T10:13:14;22.03;;;12.00;;
19291;SDS011;9779;51.756;7.450;2023-03-03T10:16:31;27.33;;;15.60;;
19291;SDS011;9779;51.756;7.450;2023-03-03T10:22:28;32.13;;;16.77;;
19291;SDS011;9779;51.756;7.450;2023-03-03T10:24:43;20.53;;;13.23;;
19291;SDS011;9779;51.756;7.450;2023-03-03T10:30:30;17.07;;;11.23;;
19291;SDS011;9779;51.756;7.450;2023-03-03T10:33:11;18.57;;;11.10;;
19291;SDS011;9779;51.756;7.450;2023-03-03T10:38:30;23.33;;;12.57;;
19291;SDS011;9779;51.756;7.450;2023-03-03T10:41:10;18.33;;;11.23;;
19291;SDS011;9779;51.756;7.450;2023-03-03T10:44:02;17.40;;;11.10;;
19291;SDS011;9779;51.756;7.450;2023-03-03T10:57:16;19.43;;;11.23;;
19291;SDS011;9779;51.756;7.450;2023-03-03T11:00:00;19.63;;;11.73;;
19291;SDS011;9779;51.756;7.450;2023-03-03T11:03:28;19.27;;;10.77;;
19291;SDS011;9779;51.756;7.450;2023-03-03T11:05:34;17.00;;;11.63;;
19291;SDS011;9779;51.756;7.450;2023-03-03T11:08:23;17.27;;;11.60;;
19291;SDS011;9779;51.756;7.450;2023-03-03T11:16:46;14.87;;;9.93;;
19291;SDS011;9779;51.756;7.450;2023-03-03T11:25:29;16.67;;;10.77;;
19291;SDS011;9779;51.756;7.450;2023-03-03T11:31:31;15.80;;;10.40;;
19291;SDS011;9779;51.756;7.450;2023-03-03T11:34:46;16.93;;;10.77;;
19291;SDS011;9779;51.756;7.450;2023-03-03T11:37:23;15.70;;;10.93;;
19291;SDS011;9779;51.756;7.450;2023-03-03T11:40:29;17.93;;;10.47;;
19291;SDS011;9779;51.756;7.450;2023-03-03T11:43:16;23.20;;;12.50;;
19291;SDS011;9779;51.756;7.450;2023-03-03T11:45:50;22.23;;;12.60;;
19291;SDS011;9779;51.756;7.450;2023-03-03T11:54:17;15.97;;;9.43;;
19291;SDS011;9779;51.756;7.450;2023-03-03T11:56:48;12.97;;;9.17;;
19291;SDS011;9779;51.756;7.450;2023-03-03T12:02:12;18.43;;;10.00;;
19291;SDS011;9779;51.756;7.450;2023-03-03T12:04:54;15.60;;;9.73;;
19291;SDS011;9779;51.756;7.450;2023-03-03T12:10:05;16.27;;;10.43;;
19291;SDS011;9779;51.756;7.450;2023-03-03T12:12:40;11.13;;;9.80;;
19291;SDS011;9779;51.756;7.450;2023-03-03T12:20:37;16.93;;;10.47;;
19291;SDS011;9779;51.756;7.450;2023-03-03T12:23:14;17.57;;;10.37;;
19291;SDS011;9779;51.756;7.450;2023-03-03T12:26:52;17.33;;;10.47;;
19291;SDS011;9779;51.756;7.450;2023-03-03T12:29:24;19.70;;;11.77;;
19291;SDS011;9779;51.756;7.450;2023-03-03T12:37:10;17.73;;;10.93;;
19291;SDS011;9779;51.756;7.450;2023-03-03T12:40:18;12.87;;;10.53;;
19291;SDS011;9779;51.756;7.450;2023-03-03T12:43:00;15.67;;;10.40;;
19291;SDS011;9779;51.756;7.450;2023-03-03T12:48:37;14.40;;;9.80;;
19291;SDS011;9779;51.756;7.450;2023-03-03T12:56:12;15.33;;;10.83;;
19291;SDS011;9779;51.756;7.450;2023-03-03T12:58:51;15.17;;;11.37;;
19291;SDS011;9779;51.756;7.450;2023-03-03T13:04:19;16.67;;;11.37;;
19291;SDS011;9779;51.756;7.450;2023-03-03T13:10:15;15.57;;;11.60;;
19291;SDS011;9779;51.756;7.450;2023-03-03T13:15:27;19.63;;;12.17;;
19291;SDS011;9779;51.756;7.450;2023-03-03T13:23:33;18.60;;;12.37;;
19291;SDS011;9779;51.756;7.450;2023-03-03T13:26:09;17.00;;;12.10;;
19291;SDS011;9779;51.756;7.450;2023-03-03T13:28:55;15.93;;;11.80;;
19291;SDS011;9779;51.756;7.450;2023-03-03T13:31:28;19.70;;;12.70;;
19291;SDS011;9779;51.756;7.450;2023-03-03T13:33:59;20.80;;;12.53;;
19291;SDS011;9779;51.756;7.450;2023-03-03T13:36:31;23.90;;;15.77;;
19291;SDS011;9779;51.756;7.450;2023-03-03T13:39:16;17.90;;;11.87;;
19291;SDS011;9779;51.756;7.450;2023-03-03T13:41:48;19.73;;;13.53;;
19291;SDS011;9779;51.756;7.450;2023-03-03T13:44:24;26.83;;;15.17;;
19291;SDS011;9779;51.756;7.450;2023-03-03T13:49:40;22.90;;;14.60;;
19291;SDS011;9779;51.756;7.450;2023-03-03T13:52:12;21.60;;;14.30;;
19291;SDS011;9779;51.756;7.450;2023-03-03T13:54:52;17.93;;;13.47;;
19291;SDS011;9779;51.756;7.450;2023-03-03T13:57:32;19.90;;;13.43;;
